Augusta, Ohio
Current Conditions -  °F | °C
As of 11:53 AM on Saturday 25 Oct 2014 (Local Time) from KPHD Reporting Station
Scattered Clouds Scattered Clouds  
Wind Chill: 60°   Ceiling: Unl
Heat Index: 60°   Visibility: 10mi
Dew Point: 49°   Wind: 8mph
Humidity: 67%   Direction: 220°SW
Pressure: 29.91"   Gusts: 17mph
Location:  40.69°N, 81.02°W
Report Text: KPHD 251553Z AUTO 22007G15KT 190V260 10SM SCT060 SCT080 16/09 A2991 RMK AO2 SLP129 T01560094
Loading
Personal Weather Stations






























Interactive Weather Map New forecast layout! Learn more

10-Day Weather Forecast

Advertisements
Track Severe Weather on mobile